createdAt,value
2019-02-11T00:28:38.779Z,996.32
2019-02-11T00:28:39.329Z,996.31
2019-02-11T00:28:39.928Z,996.27
2019-02-11T00:28:40.529Z,996.27
2019-02-11T00:28:41.126Z,996.26
2019-02-11T00:28:41.726Z,996.28
2019-02-11T00:28:42.329Z,996.27
2019-02-11T00:28:42.927Z,996.25
2019-02-11T00:29:37.429Z,996.28
2019-02-11T00:29:38.004Z,996.26
2019-02-11T00:29:38.603Z,996.24
2019-02-11T00:29:39.202Z,996.27
2019-02-11T00:29:39.802Z,996.29
2019-02-11T00:29:40.406Z,996.25
2019-02-11T00:29:41.002Z,996.26
2019-02-11T00:29:41.602Z,996.28
2019-02-11T00:30:36.108Z,996.27
2019-02-11T00:30:36.681Z,996.27
2019-02-11T00:30:37.280Z,996.28
2019-02-11T00:30:37.880Z,996.27
2019-02-11T00:30:38.479Z,996.24
2019-02-11T00:30:39.078Z,996.28
2019-02-11T00:30:39.679Z,996.27
2019-02-11T00:30:40.280Z,996.27
2019-02-11T00:31:34.784Z,996.28
2019-02-11T00:31:35.359Z,996.31
2019-02-11T00:31:35.959Z,996.29
2019-02-11T00:31:36.557Z,996.26
2019-02-11T00:31:37.160Z,996.31
2019-02-11T00:31:37.776Z,996.28
2019-02-11T00:31:38.355Z,996.29
2019-02-11T00:31:38.956Z,996.29
2019-02-11T00:32:32.441Z,996.26
2019-02-11T00:32:33.012Z,996.25
2019-02-11T00:32:33.617Z,996.25
2019-02-11T00:32:34.209Z,996.27
2019-02-11T00:32:34.810Z,996.30
2019-02-11T00:32:35.408Z,996.30
2019-02-11T00:32:36.008Z,996.30
2019-02-11T00:32:36.608Z,996.29
2019-02-11T00:33:31.111Z,996.37
2019-02-11T00:33:31.688Z,996.31
2019-02-11T00:33:32.285Z,996.35
2019-02-11T00:33:32.885Z,996.35
2019-02-11T00:33:33.497Z,996.34
2019-02-11T00:33:34.088Z,996.38
2019-02-11T00:33:34.695Z,996.36
2019-02-11T00:33:35.332Z,996.35
2019-02-11T00:34:29.788Z,996.30
2019-02-11T00:34:30.365Z,996.28
2019-02-11T00:34:30.961Z,996.26
2019-02-11T00:34:31.562Z,996.26
2019-02-11T00:34:32.160Z,996.27
2019-02-11T00:34:32.763Z,996.26
2019-02-11T00:34:33.416Z,996.26
2019-02-11T00:34:33.962Z,996.24
2019-02-11T00:35:27.442Z,996.36
2019-02-11T00:35:28.013Z,996.34
2019-02-11T00:35:28.613Z,996.38
2019-02-11T00:35:29.214Z,996.34
2019-02-11T00:35:29.812Z,996.37
2019-02-11T00:35:30.413Z,996.37
2019-02-11T00:35:31.014Z,996.37
2019-02-11T00:35:31.612Z,996.34
2019-02-11T00:36:25.607Z,996.37
2019-02-11T00:36:26.180Z,996.32
2019-02-11T00:36:26.777Z,996.34
2019-02-11T00:36:27.377Z,996.35
2019-02-11T00:36:27.978Z,996.34
2019-02-11T00:36:28.577Z,996.32
2019-02-11T00:36:29.175Z,996.37
2019-02-11T00:37:22.643Z,996.41
2019-02-11T00:37:23.216Z,996.36
2019-02-11T00:37:23.816Z,996.39
2019-02-11T00:37:24.414Z,996.41
2019-02-11T00:37:25.015Z,996.43
2019-02-11T00:37:25.614Z,996.39
2019-02-11T00:37:26.214Z,996.39
2019-02-11T00:37:26.825Z,996.41
2019-02-11T00:38:20.292Z,996.41
2019-02-11T00:38:20.867Z,996.36
2019-02-11T00:38:21.466Z,996.36
2019-02-11T00:38:22.068Z,996.38
2019-02-11T00:38:22.666Z,996.38
2019-02-11T00:38:23.265Z,996.42
2019-02-11T00:38:23.866Z,996.40
2019-02-11T00:38:24.466Z,996.37
2019-02-11T00:39:18.969Z,996.46
2019-02-11T00:39:19.542Z,996.45
2019-02-11T00:39:20.142Z,996.41
2019-02-11T00:39:20.741Z,996.42
2019-02-11T00:39:21.342Z,996.45
2019-02-11T00:39:21.942Z,996.41
2019-02-11T00:39:22.540Z,996.45
2019-02-11T00:39:23.141Z,996.46
2019-02-11T00:40:16.627Z,996.45
2019-02-11T00:40:17.195Z,996.44
2019-02-11T00:40:17.812Z,996.41
2019-02-11T00:40:18.398Z,996.42
2019-02-11T00:40:18.994Z,996.49
2019-02-11T00:40:19.594Z,996.48
2019-02-11T00:40:20.194Z,996.47
2019-02-11T00:40:20.794Z,996.49
2019-02-11T00:41:15.304Z,996.53
2019-02-11T00:41:15.874Z,996.54
2019-02-11T00:41:16.470Z,996.50
2019-02-11T00:41:17.069Z,996.50
2019-02-11T00:41:17.670Z,996.54
2019-02-11T00:41:18.270Z,996.50
2019-02-11T00:41:18.869Z,996.56
2019-02-11T00:41:19.471Z,996.50
2019-02-11T00:42:13.977Z,996.55
2019-02-11T00:42:14.546Z,996.51
2019-02-11T00:42:15.146Z,996.51
2019-02-11T00:42:15.748Z,996.51
2019-02-11T00:42:16.350Z,996.54
2019-02-11T00:42:16.945Z,996.52
2019-02-11T00:42:17.545Z,996.53
2019-02-11T00:42:18.148Z,996.56
2019-02-11T00:43:18.854Z,996.63
2019-02-11T00:43:18.960Z,996.61
2019-02-11T00:43:18.966Z,996.60
2019-02-11T00:43:19.014Z,996.59
2019-02-11T00:43:19.113Z,996.62
2019-02-11T00:43:19.225Z,996.61
2019-02-11T00:43:19.248Z,996.61
2019-02-11T00:43:19.266Z,996.60
2019-02-11T00:44:10.300Z,996.62
2019-02-11T00:44:10.874Z,996.58
2019-02-11T00:44:11.473Z,996.60
2019-02-11T00:44:12.073Z,996.58
2019-02-11T00:44:12.673Z,996.61
2019-02-11T00:44:13.274Z,996.65
2019-02-11T00:44:13.875Z,996.64
2019-02-11T00:44:14.473Z,996.65
2019-02-11T00:45:07.953Z,996.68
2019-02-11T00:45:08.526Z,996.64
2019-02-11T00:45:09.125Z,996.67
2019-02-11T00:45:09.727Z,996.68
2019-02-11T00:45:10.326Z,996.65
2019-02-11T00:45:10.926Z,996.68
2019-02-11T00:45:11.525Z,996.68
2019-02-11T00:45:12.126Z,996.68
2019-02-11T00:46:06.631Z,996.71
2019-02-11T00:46:07.200Z,996.70
2019-02-11T00:46:07.803Z,996.68
2019-02-11T00:46:08.400Z,996.72
2019-02-11T00:46:08.999Z,996.70
2019-02-11T00:46:09.602Z,996.69
2019-02-11T00:46:10.202Z,996.71
2019-02-11T00:46:10.802Z,996.70
2019-02-11T00:47:05.303Z,996.78
2019-02-11T00:47:05.877Z,996.76
2019-02-11T00:47:06.504Z,996.73
2019-02-11T00:47:07.075Z,996.71
2019-02-11T00:47:07.675Z,996.71
2019-02-11T00:47:08.276Z,996.74
2019-02-11T00:47:08.876Z,996.77
2019-02-11T00:47:09.476Z,996.74
2019-02-11T00:48:03.986Z,996.86
2019-02-11T00:48:04.556Z,996.87
2019-02-11T00:48:07.048Z,996.86
2019-02-11T00:48:07.143Z,996.83
2019-02-11T00:48:07.225Z,996.80
2019-02-11T00:48:07.285Z,996.82
2019-02-11T00:48:07.552Z,996.84
2019-02-11T00:48:08.152Z,996.84
2019-02-11T00:49:02.657Z,996.87
2019-02-11T00:49:03.229Z,996.88
2019-02-11T00:49:03.829Z,996.91
2019-02-11T00:49:04.429Z,996.88
2019-02-11T00:49:05.028Z,996.85
2019-02-11T00:49:05.628Z,996.86
2019-02-11T00:49:06.226Z,996.86
2019-02-11T00:49:06.829Z,996.86
2019-02-11T00:50:00.364Z,996.92
2019-02-11T00:50:00.880Z,996.89
2019-02-11T00:50:01.481Z,996.88
2019-02-11T00:50:02.081Z,996.94
2019-02-11T00:50:02.680Z,996.94
2019-02-11T00:50:03.282Z,996.96
2019-02-11T00:50:03.880Z,996.93
2019-02-11T00:50:04.479Z,996.94
2019-02-11T00:50:58.982Z,997.05
2019-02-11T00:50:59.565Z,997.04
2019-02-11T00:51:00.155Z,997.00
2019-02-11T00:51:00.755Z,996.99
2019-02-11T00:51:01.355Z,996.97
2019-02-11T00:51:01.955Z,997.02
2019-02-11T00:51:02.555Z,997.11
2019-02-11T00:51:03.153Z,997.04
2019-02-11T00:51:56.635Z,997.04
2019-02-11T00:51:57.207Z,997.03
2019-02-11T00:51:57.808Z,997.04
2019-02-11T00:51:58.407Z,997.00
2019-02-11T00:51:59.011Z,997.06
2019-02-11T00:51:59.607Z,997.04
2019-02-11T00:52:00.209Z,997.01
2019-02-11T00:52:00.806Z,997.04
2019-02-11T00:52:55.310Z,997.10
2019-02-11T00:52:55.883Z,997.07
2019-02-11T00:52:56.483Z,997.07
2019-02-11T00:52:57.082Z,997.10
2019-02-11T00:52:57.686Z,997.10
2019-02-11T00:52:58.281Z,997.07
2019-02-11T00:52:58.883Z,997.08
2019-02-11T00:52:59.483Z,997.08
2019-02-11T00:53:53.985Z,997.11
2019-02-11T00:53:54.562Z,997.07
2019-02-11T00:53:55.158Z,997.08
2019-02-11T00:53:55.758Z,997.08
2019-02-11T00:53:56.363Z,997.06
2019-02-11T00:53:56.958Z,997.10
2019-02-11T00:53:57.559Z,997.08
2019-02-11T00:53:58.163Z,997.08
2019-02-11T00:54:52.662Z,997.16
2019-02-11T00:54:53.236Z,997.11
2019-02-11T00:54:53.836Z,997.10
2019-02-11T00:54:54.434Z,997.10
2019-02-11T00:54:55.038Z,997.10
2019-02-11T00:54:55.634Z,997.09
2019-02-11T00:54:56.234Z,997.12
2019-02-11T00:54:56.834Z,997.16
2019-02-11T00:55:50.314Z,997.19
2019-02-11T00:55:50.888Z,997.15
2019-02-11T00:55:51.491Z,997.15
2019-02-11T00:55:52.087Z,997.15
2019-02-11T00:55:52.687Z,997.14
2019-02-11T00:55:53.287Z,997.14
2019-02-11T00:55:53.886Z,997.16
2019-02-11T00:55:54.486Z,997.18
2019-02-11T00:56:48.075Z,997.25
2019-02-11T00:56:48.643Z,997.21
2019-02-11T00:56:49.247Z,997.20
2019-02-11T00:56:49.841Z,997.22
2019-02-11T00:56:50.441Z,997.19
2019-02-11T00:56:51.040Z,997.22
2019-02-11T00:56:51.639Z,997.18
2019-02-11T00:56:52.239Z,997.23
2019-02-11T00:57:46.743Z,997.26
2019-02-11T00:57:47.316Z,997.27
2019-02-11T00:57:47.920Z,997.26
2019-02-11T00:57:48.519Z,997.29
2019-02-11T00:57:49.119Z,997.22
2019-02-11T00:57:49.716Z,997.22
2019-02-11T00:57:50.316Z,997.20
2019-02-11T00:57:50.915Z,997.25
2019-02-11T00:58:44.395Z,997.34
2019-02-11T00:58:44.969Z,997.28
2019-02-11T00:58:45.569Z,997.31
2019-02-11T00:58:46.169Z,997.35
2019-02-11T00:58:46.768Z,997.31
2019-02-11T00:58:47.371Z,997.33
2019-02-11T00:58:47.971Z,997.30
2019-02-11T00:58:48.568Z,997.29
2019-02-11T00:59:42.047Z,997.35
2019-02-11T00:59:42.633Z,997.33
2019-02-11T00:59:43.226Z,997.35
2019-02-11T00:59:43.821Z,997.32
2019-02-11T00:59:44.421Z,997.31
2019-02-11T00:59:45.020Z,997.33
2019-02-11T00:59:45.620Z,997.33
2019-02-11T00:59:46.220Z,997.33
2019-02-11T01:00:39.805Z,997.40
2019-02-11T01:00:40.375Z,997.37
2019-02-11T01:00:40.975Z,997.35
2019-02-11T01:00:41.575Z,997.41
2019-02-11T01:00:42.175Z,997.36
2019-02-11T01:00:42.775Z,997.39
2019-02-11T01:00:43.375Z,997.41
2019-02-11T01:00:43.972Z,997.42
2019-02-11T01:01:37.455Z,997.41
2019-02-11T01:01:38.028Z,997.40
2019-02-11T01:01:38.628Z,997.43
2019-02-11T01:01:39.246Z,997.41
2019-02-11T01:01:39.859Z,997.42
2019-02-11T01:01:40.431Z,997.41
2019-02-11T01:01:41.027Z,997.45
2019-02-11T01:01:41.626Z,997.45
2019-02-11T01:02:35.107Z,997.39
2019-02-11T01:02:35.679Z,997.39
2019-02-11T01:02:36.279Z,997.37
2019-02-11T01:02:36.877Z,997.37
2019-02-11T01:02:37.478Z,997.39
2019-02-11T01:02:38.078Z,997.35
2019-02-11T01:02:38.679Z,997.39
2019-02-11T01:02:39.277Z,997.41
2019-02-11T01:03:32.759Z,997.46
2019-02-11T01:03:33.332Z,997.43
2019-02-11T01:03:33.932Z,997.46
2019-02-11T01:03:34.530Z,997.50
2019-02-11T01:03:35.130Z,997.46
2019-02-11T01:03:35.729Z,997.46
2019-02-11T01:03:36.330Z,997.46
2019-02-11T01:03:36.930Z,997.47
2019-02-11T01:04:30.412Z,997.50
2019-02-11T01:04:30.984Z,997.48
2019-02-11T01:04:31.582Z,997.48
2019-02-11T01:04:32.187Z,997.49
2019-02-11T01:04:32.781Z,997.46
2019-02-11T01:04:33.380Z,997.51
2019-02-11T01:04:33.982Z,997.52
2019-02-11T01:04:34.582Z,997.48
2019-02-11T01:05:28.060Z,997.56
2019-02-11T01:05:28.633Z,997.56
2019-02-11T01:05:29.233Z,997.55
2019-02-11T01:05:29.833Z,997.54
2019-02-11T01:05:30.432Z,997.56
2019-02-11T01:05:31.032Z,997.57
2019-02-11T01:05:31.634Z,997.56
2019-02-11T01:05:32.233Z,997.56
2019-02-11T01:06:25.711Z,997.55
2019-02-11T01:06:26.286Z,997.53
2019-02-11T01:06:26.885Z,997.58
2019-02-11T01:06:27.486Z,997.54
2019-02-11T01:06:28.084Z,997.55
2019-02-11T01:06:28.687Z,997.59
2019-02-11T01:06:29.287Z,997.55
2019-02-11T01:06:29.883Z,997.57
2019-02-11T01:07:23.364Z,997.60
2019-02-11T01:07:23.936Z,997.58
2019-02-11T01:07:24.540Z,997.59
2019-02-11T01:07:25.138Z,997.61
2019-02-11T01:07:25.736Z,997.57
2019-02-11T01:07:26.336Z,997.62
2019-02-11T01:07:26.935Z,997.62
2019-02-11T01:07:27.535Z,997.60
2019-02-11T01:08:22.041Z,997.63
2019-02-11T01:08:22.613Z,997.62
2019-02-11T01:08:23.213Z,997.67
2019-02-11T01:08:23.812Z,997.63
2019-02-11T01:08:24.411Z,997.65
2019-02-11T01:08:25.011Z,997.67
2019-02-11T01:08:25.611Z,997.64
2019-02-11T01:08:26.210Z,997.64
2019-02-11T01:09:19.695Z,997.66
2019-02-11T01:09:20.265Z,997.68
2019-02-11T01:09:20.863Z,997.67
2019-02-11T01:09:21.481Z,997.70
2019-02-11T01:09:22.064Z,997.69
2019-02-11T01:09:22.664Z,997.68
2019-02-11T01:09:23.264Z,997.67
2019-02-11T01:09:23.864Z,997.64
2019-02-11T01:10:18.365Z,997.64
2019-02-11T01:10:18.940Z,997.66
2019-02-11T01:10:19.539Z,997.63
2019-02-11T01:10:20.144Z,997.68
2019-02-11T01:10:20.740Z,997.65
2019-02-11T01:10:21.345Z,997.72
2019-02-11T01:10:21.939Z,997.71
2019-02-11T01:10:22.541Z,997.73
2019-02-11T01:11:16.018Z,997.72
2019-02-11T01:11:16.592Z,997.72
2019-02-11T01:11:17.191Z,997.75
2019-02-11T01:11:17.836Z,997.75
2019-02-11T01:11:18.392Z,997.76
2019-02-11T01:11:18.991Z,997.77
2019-02-11T01:11:19.591Z,997.78
2019-02-11T01:11:20.193Z,997.82
2019-02-11T01:12:14.694Z,997.79
2019-02-11T01:12:15.267Z,997.81
2019-02-11T01:12:15.867Z,997.79
2019-02-11T01:12:16.467Z,997.81
2019-02-11T01:12:17.067Z,997.81
2019-02-11T01:12:17.665Z,997.82
2019-02-11T01:12:18.266Z,997.81
2019-02-11T01:12:18.869Z,997.81
2019-02-11T01:13:18.388Z,997.81
2019-02-11T01:13:27.192Z,997.82
2019-02-11T01:13:27.232Z,997.82
2019-02-11T01:13:27.376Z,997.75
2019-02-11T01:13:27.382Z,997.83
2019-02-11T01:13:27.446Z,997.84
2019-02-11T01:13:27.516Z,997.84
2019-02-11T01:13:27.739Z,997.80
2019-02-11T01:13:27.769Z,997.83
2019-02-11T01:13:27.848Z,997.75
2019-02-11T01:13:27.884Z,997.84
2019-02-11T01:13:27.900Z,997.86
2019-02-11T01:13:27.913Z,997.82
2019-02-11T01:13:27.917Z,997.80
2019-02-11T01:13:28.070Z,997.78
2019-02-11T01:13:28.114Z,997.77
2019-02-11T01:14:45.840Z,997.88
2019-02-11T01:14:46.412Z,997.87
2019-02-11T01:14:47.011Z,997.91
2019-02-11T01:14:47.611Z,997.86
2019-02-11T01:14:48.211Z,997.84
2019-02-11T01:14:48.813Z,997.82
2019-02-11T01:14:49.411Z,997.82
2019-02-11T01:14:50.009Z,997.85
2019-02-11T01:14:50.611Z,997.87
2019-02-11T01:14:51.210Z,997.88
2019-02-11T01:14:51.809Z,997.88
2019-02-11T01:14:52.409Z,997.89
2019-02-11T01:14:53.009Z,997.88
2019-02-11T01:14:53.608Z,997.87
2019-02-11T01:14:54.208Z,997.88
2019-02-11T01:14:54.813Z,997.86
2019-02-11T01:14:55.408Z,997.87
2019-02-11T01:15:50.862Z,997.93
2019-02-11T01:15:51.436Z,997.88
2019-02-11T01:15:52.033Z,997.94
2019-02-11T01:15:52.634Z,997.91
2019-02-11T01:15:53.233Z,997.91
2019-02-11T01:15:53.835Z,997.94
2019-02-11T01:15:54.434Z,997.96
2019-02-11T01:16:49.644Z,997.92
2019-02-11T01:16:50.213Z,997.91
2019-02-11T01:16:50.812Z,997.90
2019-02-11T01:16:51.413Z,997.95
2019-02-11T01:16:52.016Z,997.92
2019-02-11T01:16:52.612Z,997.91
2019-02-11T01:16:53.212Z,997.94
2019-02-11T01:16:53.813Z,997.96
2019-02-11T01:17:48.317Z,997.99
2019-02-11T01:17:48.890Z,998.00
2019-02-11T01:17:49.491Z,997.96
2019-02-11T01:17:50.088Z,998.01
2019-02-11T01:17:50.688Z,998.00
2019-02-11T01:17:51.288Z,997.98
2019-02-11T01:17:51.890Z,997.98
2019-02-11T01:17:52.487Z,998.00
2019-02-11T01:18:46.992Z,997.96
2019-02-11T01:18:47.567Z,997.96
2019-02-11T01:18:48.165Z,997.95
2019-02-11T01:18:48.765Z,997.96
2019-02-11T01:18:49.365Z,997.97
2019-02-11T01:18:49.963Z,998.00
2019-02-11T01:18:50.563Z,997.93
2019-02-11T01:18:51.165Z,997.95
2019-02-11T01:19:44.650Z,998.02
2019-02-11T01:19:45.217Z,998.03
2019-02-11T01:19:45.819Z,998.05
2019-02-11T01:19:46.417Z,998.07
2019-02-11T01:19:47.017Z,998.02
2019-02-11T01:19:47.617Z,998.06
2019-02-11T01:19:48.217Z,998.04
2019-02-11T01:19:48.820Z,998.02
2019-02-11T01:20:42.296Z,997.98
2019-02-11T01:20:42.869Z,998.06
2019-02-11T01:20:43.470Z,998.04
2019-02-11T01:20:44.067Z,998.02
2019-02-11T01:20:44.668Z,998.06
2019-02-11T01:20:45.268Z,998.01
2019-02-11T01:20:45.867Z,998.06
2019-02-11T01:20:46.468Z,998.11
2019-02-11T01:21:40.979Z,998.04
2019-02-11T01:21:41.544Z,998.05
2019-02-11T01:21:42.142Z,998.05
2019-02-11T01:21:42.745Z,998.08
2019-02-11T01:21:43.343Z,998.05
2019-02-11T01:21:43.941Z,998.05
2019-02-11T01:21:44.543Z,998.01
2019-02-11T01:21:45.144Z,998.09
2019-02-11T01:22:39.646Z,998.07
2019-02-11T01:22:40.257Z,998.07
2019-02-11T01:22:40.822Z,998.06
2019-02-11T01:22:41.418Z,998.06
2019-02-11T01:22:42.018Z,998.04
2019-02-11T01:22:42.619Z,998.11
2019-02-11T01:22:43.219Z,998.07
2019-02-11T01:22:43.819Z,998.05
2019-02-11T01:23:38.323Z,998.08
2019-02-11T01:23:38.895Z,998.09
2019-02-11T01:23:39.495Z,998.11
2019-02-11T01:23:40.096Z,998.11
2019-02-11T01:23:40.697Z,998.11
2019-02-11T01:23:41.296Z,998.09
2019-02-11T01:23:41.894Z,998.10
2019-02-11T01:23:42.495Z,998.10
2019-02-11T01:24:35.976Z,998.18
2019-02-11T01:24:36.548Z,998.15
2019-02-11T01:24:37.147Z,998.18
2019-02-11T01:24:37.750Z,998.20
2019-02-11T01:24:38.346Z,998.24
2019-02-11T01:24:38.947Z,998.24
2019-02-11T01:24:39.547Z,998.20
2019-02-11T01:24:40.146Z,998.14
2019-02-11T01:25:34.652Z,998.12
2019-02-11T01:25:35.223Z,998.16
2019-02-11T01:25:35.822Z,998.14
2019-02-11T01:25:36.421Z,998.15
2019-02-11T01:25:37.023Z,998.19
2019-02-11T01:25:37.622Z,998.19
2019-02-11T01:25:38.221Z,998.15
2019-02-11T01:25:38.821Z,998.17
2019-02-11T01:26:32.303Z,998.18
2019-02-11T01:26:32.874Z,998.18
2019-02-11T01:26:33.474Z,998.17
2019-02-11T01:26:34.075Z,998.18
2019-02-11T01:26:34.675Z,998.16
2019-02-11T01:26:35.274Z,998.18
2019-02-11T01:26:35.875Z,998.22
2019-02-11T01:26:36.475Z,998.18
2019-02-11T01:27:30.978Z,998.20
2019-02-11T01:27:31.551Z,998.19
2019-02-11T01:27:32.150Z,998.24
2019-02-11T01:27:32.761Z,998.20
2019-02-11T01:27:33.351Z,998.22
2019-02-11T01:27:33.949Z,998.22
2019-02-11T01:27:34.549Z,998.25
2019-02-11T01:27:35.149Z,998.24
2019-02-11T01:28:28.628Z,998.29
2019-02-11T01:28:29.203Z,998.26
2019-02-11T01:28:29.802Z,998.25
2019-02-11T01:28:30.403Z,998.28
2019-02-11T01:28:31.003Z,998.26
2019-02-11T01:28:31.602Z,998.25
2019-02-11T01:28:32.202Z,998.24
2019-02-11T01:28:32.802Z,998.26
2019-02-11T01:29:26.282Z,998.27
2019-02-11T01:29:26.854Z,998.32
2019-02-11T01:29:27.455Z,998.32
2019-02-11T01:29:28.054Z,998.29
2019-02-11T01:29:28.654Z,998.32
2019-02-11T01:29:29.265Z,998.31
2019-02-11T01:29:29.853Z,998.30
2019-02-11T01:29:30.453Z,998.33
2019-02-11T01:30:23.934Z,998.33
2019-02-11T01:30:24.506Z,998.33
2019-02-11T01:30:25.105Z,998.29
2019-02-11T01:30:25.706Z,998.34
2019-02-11T01:30:26.306Z,998.35
2019-02-11T01:30:26.905Z,998.33
2019-02-11T01:30:27.511Z,998.28
2019-02-11T01:30:28.105Z,998.35
2019-02-11T01:31:22.608Z,998.29
2019-02-11T01:31:23.180Z,998.31
2019-02-11T01:31:23.780Z,998.31
2019-02-11T01:31:24.381Z,998.30
2019-02-11T01:31:24.984Z,998.32
2019-02-11T01:31:25.581Z,998.35
2019-02-11T01:31:26.178Z,998.34
2019-02-11T01:31:26.782Z,998.39
2019-02-11T01:32:21.284Z,998.34
2019-02-11T01:32:21.856Z,998.34
2019-02-11T01:32:22.455Z,998.34
2019-02-11T01:32:23.056Z,998.36
2019-02-11T01:32:23.655Z,998.35
2019-02-11T01:32:24.258Z,998.35
2019-02-11T01:32:24.855Z,998.36
2019-02-11T01:32:25.455Z,998.34
2019-02-11T01:33:18.937Z,998.30
2019-02-11T01:33:19.508Z,998.28
2019-02-11T01:33:20.110Z,998.34
2019-02-11T01:33:20.710Z,998.35
2019-02-11T01:33:21.310Z,998.33
2019-02-11T01:33:21.909Z,998.33
2019-02-11T01:33:22.509Z,998.29
2019-02-11T01:33:23.108Z,998.34
2019-02-11T01:34:17.609Z,998.34
2019-02-11T01:34:18.185Z,998.33
2019-02-11T01:34:18.787Z,998.36
2019-02-11T01:34:19.386Z,998.34
2019-02-11T01:34:19.986Z,998.36
2019-02-11T01:34:20.584Z,998.35
2019-02-11T01:34:21.186Z,998.36
2019-02-11T01:34:21.784Z,998.35
2019-02-11T01:35:15.266Z,998.45
2019-02-11T01:35:15.843Z,998.46
2019-02-11T01:35:16.438Z,998.46
2019-02-11T01:35:17.038Z,998.44
2019-02-11T01:35:17.638Z,998.49
2019-02-11T01:35:18.237Z,998.49
2019-02-11T01:35:18.837Z,998.45
2019-02-11T01:35:19.437Z,998.50
2019-02-11T01:36:13.939Z,998.36
2019-02-11T01:36:14.512Z,998.38
2019-02-11T01:36:15.112Z,998.38
2019-02-11T01:36:15.711Z,998.43
2019-02-11T01:36:16.312Z,998.38
2019-02-11T01:36:16.915Z,998.37
2019-02-11T01:36:17.511Z,998.39
2019-02-11T01:36:18.111Z,998.37
2019-02-11T01:37:11.592Z,998.44
2019-02-11T01:37:12.167Z,998.43
2019-02-11T01:37:12.797Z,998.45
2019-02-11T01:37:13.366Z,998.41
2019-02-11T01:37:13.965Z,998.40
2019-02-11T01:37:14.564Z,998.43
2019-02-11T01:37:15.164Z,998.42
2019-02-11T01:37:15.765Z,998.42
2019-02-11T01:38:09.245Z,998.47
2019-02-11T01:38:09.819Z,998.47
2019-02-11T01:38:10.418Z,998.47
2019-02-11T01:38:11.016Z,998.47
2019-02-11T01:38:11.615Z,998.48
2019-02-11T01:38:12.257Z,998.52
2019-02-11T01:38:12.817Z,998.46
2019-02-11T01:38:13.414Z,998.48
2019-02-11T01:39:06.897Z,998.53
2019-02-11T01:39:07.470Z,998.52
2019-02-11T01:39:08.069Z,998.48
2019-02-11T01:39:08.668Z,998.50
2019-02-11T01:39:09.268Z,998.52
2019-02-11T01:39:09.868Z,998.49
2019-02-11T01:39:10.468Z,998.50
2019-02-11T01:39:11.068Z,998.46
2019-02-11T01:40:05.570Z,998.49
2019-02-11T01:40:06.145Z,998.52
2019-02-11T01:40:06.744Z,998.46
2019-02-11T01:40:07.344Z,998.51
2019-02-11T01:40:07.943Z,998.52
2019-02-11T01:40:08.542Z,998.50
2019-02-11T01:40:09.144Z,998.49
2019-02-11T01:40:09.745Z,998.50
2019-02-11T01:41:04.246Z,998.47
2019-02-11T01:41:04.821Z,998.49
2019-02-11T01:41:05.419Z,998.50
2019-02-11T01:41:06.018Z,998.51
2019-02-11T01:41:06.618Z,998.52
2019-02-11T01:41:07.220Z,998.49
2019-02-11T01:41:07.818Z,998.50
2019-02-11T01:41:08.417Z,998.54
2019-02-11T01:42:01.898Z,998.57
2019-02-11T01:42:02.473Z,998.54
2019-02-11T01:42:03.073Z,998.53
2019-02-11T01:42:03.672Z,998.49
2019-02-11T01:42:04.275Z,998.53
2019-02-11T01:42:04.872Z,998.54
2019-02-11T01:42:05.476Z,998.53
2019-02-11T01:42:06.070Z,998.55
2019-02-11T01:43:00.573Z,998.59
2019-02-11T01:43:01.146Z,998.57
2019-02-11T01:43:01.747Z,998.59
2019-02-11T01:43:02.347Z,998.63
2019-02-11T01:43:02.947Z,998.61
2019-02-11T01:43:03.554Z,998.66
2019-02-11T01:43:04.148Z,998.62
2019-02-11T01:43:04.746Z,998.61
2019-02-11T01:43:59.251Z,998.58
2019-02-11T01:43:59.824Z,998.59
2019-02-11T01:44:00.422Z,998.56
2019-02-11T01:44:01.026Z,998.53
2019-02-11T01:44:01.622Z,998.55
2019-02-11T01:44:02.222Z,998.59
2019-02-11T01:44:02.822Z,998.58
2019-02-11T01:44:03.421Z,998.61
2019-02-11T01:44:56.956Z,998.64
2019-02-11T01:44:57.475Z,998.61
2019-02-11T01:44:58.073Z,998.67
2019-02-11T01:44:58.675Z,998.65
2019-02-11T01:44:59.276Z,998.62
2019-02-11T01:44:59.876Z,998.68
2019-02-11T01:45:00.474Z,998.69
2019-02-11T01:45:01.075Z,998.71
2019-02-11T01:45:55.578Z,998.65
2019-02-11T01:45:56.150Z,998.66
2019-02-11T01:45:56.750Z,998.66
2019-02-11T01:45:57.349Z,998.64
2019-02-11T01:45:57.950Z,998.59
2019-02-11T01:45:58.549Z,998.59
2019-02-11T01:45:59.149Z,998.64
2019-02-11T01:45:59.748Z,998.67
2019-02-11T01:46:54.252Z,998.69
2019-02-11T01:46:54.825Z,998.67
2019-02-11T01:46:55.425Z,998.67
2019-02-11T01:46:56.024Z,998.67
2019-02-11T01:46:56.625Z,998.69
2019-02-11T01:46:57.234Z,998.67
2019-02-11T01:46:57.824Z,998.66
2019-02-11T01:46:58.426Z,998.65
2019-02-11T01:47:51.904Z,998.70
2019-02-11T01:47:52.478Z,998.73
2019-02-11T01:47:53.077Z,998.75
2019-02-11T01:47:53.677Z,998.74
2019-02-11T01:47:54.278Z,998.69
2019-02-11T01:47:54.880Z,998.70
2019-02-11T01:47:55.503Z,998.73
2019-02-11T01:47:56.083Z,998.74
2019-02-11T01:48:50.580Z,998.67
2019-02-11T01:48:51.154Z,998.67
2019-02-11T01:48:51.753Z,998.73
2019-02-11T01:48:52.352Z,998.74
2019-02-11T01:48:52.954Z,998.76
2019-02-11T01:48:53.553Z,998.77
2019-02-11T01:48:54.152Z,998.73
2019-02-11T01:48:54.753Z,998.74
2019-02-11T01:49:49.256Z,998.79
2019-02-11T01:49:49.833Z,998.80
2019-02-11T01:49:50.429Z,998.78
2019-02-11T01:49:51.029Z,998.75
2019-02-11T01:49:51.629Z,998.76
2019-02-11T01:49:52.229Z,998.78
2019-02-11T01:49:52.829Z,998.74
2019-02-11T01:49:53.427Z,998.75
2019-02-11T01:50:46.909Z,998.77
2019-02-11T01:50:47.481Z,998.80
2019-02-11T01:50:48.081Z,998.77
2019-02-11T01:50:48.681Z,998.80
2019-02-11T01:50:49.280Z,998.82
2019-02-11T01:50:49.882Z,998.82
2019-02-11T01:50:50.481Z,998.80
2019-02-11T01:50:51.080Z,998.83
2019-02-11T01:51:45.584Z,998.82
2019-02-11T01:51:46.156Z,998.82
2019-02-11T01:51:46.756Z,998.82
2019-02-11T01:51:47.356Z,998.83
2019-02-11T01:51:47.956Z,998.87
2019-02-11T01:51:48.555Z,998.81
2019-02-11T01:51:49.155Z,998.80
2019-02-11T01:51:49.755Z,998.82
2019-02-11T01:52:43.234Z,998.84
2019-02-11T01:52:43.810Z,998.85
2019-02-11T01:52:44.408Z,998.85
2019-02-11T01:52:45.027Z,998.84
2019-02-11T01:52:45.610Z,998.80
2019-02-11T01:52:46.207Z,998.87
2019-02-11T01:52:46.809Z,998.84
2019-02-11T01:52:47.407Z,998.83
2019-02-11T01:53:41.909Z,998.89
2019-02-11T01:53:42.484Z,998.88
2019-02-11T01:53:43.083Z,998.86
2019-02-11T01:53:43.682Z,998.87
2019-02-11T01:53:44.282Z,998.88
2019-02-11T01:53:44.883Z,998.93
2019-02-11T01:53:45.482Z,998.88
2019-02-11T01:53:46.081Z,998.87
2019-02-11T01:54:40.587Z,998.91
2019-02-11T01:54:41.159Z,998.98
2019-02-11T01:54:41.758Z,998.94
2019-02-11T01:54:42.359Z,998.92
2019-02-11T01:54:42.962Z,998.90
2019-02-11T01:54:43.559Z,998.89
2019-02-11T01:54:44.159Z,998.86
2019-02-11T01:54:44.775Z,998.90
2019-02-11T01:55:39.263Z,998.92
2019-02-11T01:55:39.836Z,998.94
2019-02-11T01:55:40.434Z,998.91
2019-02-11T01:55:41.034Z,998.93
2019-02-11T01:55:41.636Z,998.92
2019-02-11T01:55:42.234Z,998.92
2019-02-11T01:55:42.834Z,998.92
2019-02-11T01:55:43.435Z,998.91
2019-02-11T01:56:38.340Z,998.96
2019-02-11T01:56:38.511Z,998.97
2019-02-11T01:56:39.110Z,998.96
2019-02-11T01:56:39.711Z,998.95
2019-02-11T01:56:40.311Z,998.99
2019-02-11T01:56:40.910Z,998.97
2019-02-11T01:56:41.510Z,998.98
2019-02-11T01:56:42.109Z,998.95
2019-02-11T01:57:35.593Z,998.93
2019-02-11T01:57:36.163Z,998.96
2019-02-11T01:57:36.767Z,998.95
2019-02-11T01:57:37.364Z,998.94
2019-02-11T01:57:37.968Z,998.98
2019-02-11T01:57:38.564Z,998.97